createdAt,value
2019-06-10T00:00:41.988Z,61.98
2019-06-10T00:03:11.730Z,61.73
2019-06-10T00:05:41.676Z,61.41
2019-06-10T00:08:12.047Z,61.39
2019-06-10T00:10:42.141Z,61.48
2019-06-10T00:13:11.997Z,61.58
2019-06-10T00:15:41.450Z,61.96
2019-06-10T00:18:33.952Z,61.82
2019-06-10T00:20:41.524Z,61.81
2019-06-10T00:23:12.040Z,61.51
2019-06-10T00:25:41.787Z,61.41
2019-06-10T00:28:12.067Z,61.45
2019-06-10T00:30:41.732Z,61.58
2019-06-10T00:33:12.573Z,61.33
2019-06-10T00:35:41.624Z,61.40
2019-06-10T00:38:14.313Z,61.54
2019-06-10T00:40:42.024Z,61.61
2019-06-10T00:43:13.142Z,61.74
2019-06-10T00:45:41.566Z,61.55
2019-06-10T00:48:24.210Z,61.46
2019-06-10T00:50:41.894Z,62.33
2019-06-10T00:53:14.217Z,62.09
2019-06-10T00:55:42.006Z,61.87
2019-06-10T00:58:13.918Z,61.77
2019-06-10T01:00:41.901Z,61.75
2019-06-10T01:03:13.595Z,61.80
2019-06-10T01:05:42.076Z,61.82
2019-06-10T01:08:13.962Z,61.66
2019-06-10T01:10:43.850Z,61.57
2019-06-10T01:13:14.964Z,61.49
2019-06-10T01:15:42.629Z,61.48
2019-06-10T01:18:30.613Z,61.47
2019-06-10T01:20:41.992Z,61.75
2019-06-10T01:23:13.520Z,61.84
2019-06-10T01:25:42.170Z,61.98
2019-06-10T01:28:14.208Z,61.87
2019-06-10T01:30:42.261Z,61.89
2019-06-10T01:33:13.195Z,61.97
2019-06-10T01:35:42.753Z,62.00
2019-06-10T01:38:13.480Z,61.95
2019-06-10T01:40:42.464Z,61.82
2019-06-10T01:43:13.985Z,61.78
2019-06-10T01:45:42.195Z,61.71
2019-06-10T01:48:12.033Z,61.73
2019-06-10T01:50:41.861Z,62.00
2019-06-10T01:53:14.058Z,62.25
2019-06-10T01:55:41.765Z,62.34
2019-06-10T01:58:14.684Z,62.51
2019-06-10T02:00:45.805Z,62.71
2019-06-10T02:03:17.227Z,62.49
2019-06-10T02:05:45.444Z,62.35
2019-06-10T02:08:15.897Z,62.26
2019-06-10T02:10:44.727Z,62.66
2019-06-10T02:13:32.503Z,62.44
2019-06-10T02:16:02.477Z,62.35
2019-06-10T02:18:32.029Z,62.14
2019-06-10T02:21:01.443Z,61.99
2019-06-10T02:23:31.365Z,61.90
2019-06-10T02:26:02.070Z,62.08
2019-06-10T02:28:31.613Z,62.30
2019-06-10T02:31:03.885Z,62.18
2019-06-10T02:33:36.253Z,61.37
2019-06-10T02:36:04.117Z,61.46
2019-06-10T02:38:38.643Z,61.37
2019-06-10T02:41:04.663Z,61.62
2019-06-10T02:43:37.527Z,61.37
2019-06-10T02:46:05.716Z,61.80
2019-06-10T02:48:35.424Z,61.90
2019-06-10T02:51:05.941Z,62.49
2019-06-10T02:53:36.625Z,62.77
2019-06-10T02:56:06.495Z,62.61
2019-06-10T02:58:38.949Z,62.78
2019-06-10T03:01:05.739Z,63.12
2019-06-10T03:03:42.901Z,63.30
2019-06-10T03:06:06.623Z,63.49
2019-06-10T03:08:36.451Z,64.86
2019-06-10T03:11:06.072Z,64.28
2019-06-10T03:13:34.828Z,64.69
2019-06-10T03:16:05.364Z,64.64
2019-06-10T03:18:34.197Z,64.41
2019-06-10T03:21:03.002Z,64.33
2019-06-10T03:23:33.197Z,64.52
2019-06-10T03:26:04.383Z,64.80
2019-06-10T03:28:33.592Z,65.75
2019-06-10T03:31:05.541Z,65.65
2019-06-10T03:33:40.788Z,66.08
2019-06-10T03:36:04.635Z,66.15
2019-06-10T03:38:36.366Z,66.26
2019-06-10T03:41:03.908Z,66.35
2019-06-10T03:43:33.162Z,67.08
2019-06-10T03:46:03.131Z,66.89
2019-06-10T03:48:33.006Z,66.83
2019-06-10T03:51:03.438Z,66.64
2019-06-10T03:53:33.660Z,67.09
2019-06-10T03:56:02.848Z,68.13
2019-06-10T03:58:33.067Z,67.73
2019-06-10T04:01:03.047Z,67.37
2019-06-10T04:03:34.070Z,67.24
2019-06-10T04:06:03.270Z,67.51
2019-06-10T04:08:32.931Z,67.11
2019-06-10T04:11:02.886Z,67.05
2019-06-10T04:13:33.838Z,68.49
2019-06-10T04:16:03.555Z,67.81
2019-06-10T04:18:32.901Z,67.67
2019-06-10T04:21:02.546Z,67.44
2019-06-10T04:23:33.426Z,67.28
2019-06-10T04:26:02.524Z,67.60
2019-06-10T04:28:33.772Z,67.48
2019-06-10T04:31:02.592Z,67.52
2019-06-10T04:33:32.852Z,67.31
2019-06-10T04:36:02.863Z,67.45
2019-06-10T04:38:32.728Z,67.53
2019-06-10T04:41:03.483Z,68.08
2019-06-10T04:43:33.168Z,68.28
2019-06-10T04:46:02.538Z,68.32
2019-06-10T04:48:33.015Z,68.39
2019-06-10T04:51:02.758Z,68.39
2019-06-10T04:53:33.219Z,68.40
2019-06-10T04:56:03.077Z,68.57
2019-06-10T04:58:33.512Z,68.55
2019-06-10T05:01:03.258Z,69.41
2019-06-10T05:03:33.626Z,68.93
2019-06-10T05:06:03.448Z,68.74
2019-06-10T05:08:33.836Z,68.62
2019-06-10T05:11:04.872Z,68.69
2019-06-10T05:13:33.906Z,68.86
2019-06-10T05:16:03.786Z,68.74
2019-06-10T05:18:33.456Z,68.70
2019-06-10T05:21:03.069Z,68.73
2019-06-10T05:23:32.953Z,68.92
2019-06-10T05:26:02.951Z,68.66
2019-06-10T05:28:34.260Z,68.51
2019-06-10T05:31:03.008Z,68.92
2019-06-10T05:33:33.429Z,68.78
2019-06-10T05:36:02.900Z,68.70
2019-06-10T05:38:35.182Z,68.57
2019-06-10T05:41:02.901Z,68.30
2019-06-10T05:43:34.336Z,68.04
2019-06-10T05:46:03.086Z,68.91
2019-06-10T05:48:33.560Z,68.60
2019-06-10T05:51:06.307Z,69.55
2019-06-10T05:53:34.935Z,69.65
2019-06-10T05:56:03.393Z,69.17
2019-06-10T05:58:35.826Z,69.20
2019-06-10T06:01:03.912Z,69.87
2019-06-10T06:03:36.244Z,69.42
2019-06-10T06:06:03.397Z,69.95
2019-06-10T06:08:34.913Z,70.06
2019-06-10T06:11:03.231Z,70.40
2019-06-10T06:13:38.845Z,70.17
2019-06-10T06:16:07.684Z,70.32
2019-06-10T06:18:36.590Z,70.51
2019-06-10T06:21:20.689Z,70.33
2019-06-10T06:23:38.291Z,70.09
2019-06-10T06:26:07.141Z,69.99
2019-06-10T06:28:36.192Z,69.96
2019-06-10T06:31:05.117Z,70.01
2019-06-10T06:33:37.687Z,69.95
2019-06-10T06:36:04.480Z,69.93
2019-06-10T06:38:34.951Z,70.30
2019-06-10T06:41:03.732Z,70.46
2019-06-10T06:43:37.181Z,70.25
2019-06-10T06:46:02.986Z,70.06
2019-06-10T06:48:35.663Z,69.60
2019-06-10T06:51:08.055Z,69.55
2019-06-10T06:53:43.793Z,69.77
2019-06-10T06:56:03.869Z,69.82
2019-06-10T06:58:35.239Z,69.54
2019-06-10T07:01:10.046Z,69.17
2019-06-10T07:03:35.244Z,69.37
2019-06-10T07:06:04.456Z,68.96
2019-06-10T07:08:35.887Z,68.71
2019-06-10T07:11:03.786Z,68.89
2019-06-10T07:13:35.925Z,69.23
2019-06-10T07:16:04.466Z,68.30
2019-06-10T07:18:38.954Z,69.14
2019-06-10T07:21:03.827Z,68.49
2019-06-10T07:23:34.502Z,67.71
2019-06-10T07:26:03.203Z,67.46
2019-06-10T07:28:34.031Z,66.67
2019-06-10T07:31:03.245Z,66.17
2019-06-10T07:33:34.826Z,66.02
2019-06-10T07:36:03.440Z,66.12
2019-06-10T07:38:33.891Z,65.96
2019-06-10T07:41:03.156Z,65.82
2019-06-10T07:43:33.988Z,65.36
2019-06-10T07:46:03.301Z,64.37
2019-06-10T07:48:33.493Z,63.93
2019-06-10T07:51:03.212Z,63.90
2019-06-10T07:53:33.270Z,63.88
2019-06-10T07:56:03.223Z,63.85
2019-06-10T07:58:34.972Z,63.73
2019-06-10T08:01:02.991Z,63.52
2019-06-10T08:03:33.388Z,63.00
2019-06-10T08:06:03.470Z,62.73
2019-06-10T08:08:33.046Z,62.12
2019-06-10T08:11:03.427Z,62.85
2019-06-10T08:13:32.608Z,62.24
2019-06-10T08:16:02.705Z,60.37
2019-06-10T08:18:38.391Z,58.58
2019-06-10T08:23:32.810Z,59.19
2019-06-10T08:26:03.389Z,58.79
2019-06-10T08:28:33.198Z,58.58
2019-06-10T08:31:03.605Z,58.92
2019-06-10T08:33:33.227Z,58.48
2019-06-10T08:36:04.040Z,57.83
2019-06-10T08:38:34.415Z,57.87
2019-06-10T08:41:03.448Z,57.27
2019-06-10T08:43:33.615Z,57.64
2019-06-10T08:46:02.847Z,57.36
2019-06-10T08:48:32.920Z,57.51
2019-06-10T08:51:03.929Z,57.32
2019-06-10T08:53:33.155Z,57.36
2019-06-10T08:56:02.868Z,56.87
2019-06-10T08:58:33.087Z,57.51
2019-06-10T09:01:02.709Z,57.20
2019-06-10T09:03:32.511Z,56.64
2019-06-10T09:06:02.697Z,54.95
2019-06-10T09:08:32.767Z,54.63
2019-06-10T09:11:02.380Z,54.30
2019-06-10T09:13:33.602Z,52.33
2019-06-10T09:16:14.750Z,53.79
2019-06-10T09:18:33.691Z,52.71
2019-06-10T09:21:03.161Z,51.97
2019-06-10T09:23:33.201Z,53.76
2019-06-10T09:26:03.578Z,53.94
2019-06-10T09:28:33.110Z,53.65
2019-06-10T09:31:04.121Z,53.46
2019-06-10T09:33:33.070Z,51.55
2019-06-10T09:36:03.819Z,52.78
2019-06-10T09:38:33.583Z,51.92
2019-06-10T09:41:06.121Z,50.80
2019-06-10T09:43:34.011Z,49.98
2019-06-10T09:46:03.581Z,50.32
2019-06-10T09:48:33.761Z,50.15
2019-06-10T09:51:02.954Z,50.37
2019-06-10T09:53:39.285Z,49.59
2019-06-10T09:56:04.110Z,48.94
2019-06-10T09:58:33.067Z,49.74
2019-06-10T10:01:04.831Z,46.99
2019-06-10T10:03:33.625Z,46.61
2019-06-10T10:06:11.649Z,43.98
2019-06-10T10:08:34.016Z,43.97
2019-06-10T10:11:03.247Z,44.31
2019-06-10T10:13:35.420Z,44.25
2019-06-10T10:16:02.855Z,44.23
2019-06-10T10:18:32.950Z,43.89
2019-06-10T10:21:03.913Z,43.48
2019-06-10T10:23:49.042Z,41.59
2019-06-10T10:26:03.583Z,41.47
2019-06-10T10:28:33.462Z,38.68
2019-06-10T10:31:04.387Z,40.49
2019-06-10T10:33:33.400Z,38.77
2019-06-10T10:36:03.052Z,39.86
2019-06-10T10:38:34.457Z,39.47
2019-06-10T10:41:04.470Z,39.48
2019-06-10T10:43:37.202Z,38.50
2019-06-10T10:46:05.680Z,38.60
2019-06-10T10:48:34.280Z,39.08
2019-06-10T10:51:03.813Z,38.93
2019-06-10T10:53:33.123Z,38.69
2019-06-10T10:56:03.337Z,38.63
2019-06-10T10:58:33.177Z,38.26
2019-06-10T11:01:04.651Z,38.22
2019-06-10T11:03:33.901Z,37.95
2019-06-10T11:06:02.756Z,38.70
2019-06-10T11:08:33.261Z,37.74
2019-06-10T11:11:05.109Z,36.89
2019-06-10T11:13:34.109Z,37.73
2019-06-10T11:16:03.512Z,37.59
2019-06-10T11:18:33.952Z,37.41
2019-06-10T11:21:05.094Z,38.66
2019-06-10T11:23:34.731Z,38.79
2019-06-10T11:26:03.875Z,39.36
2019-06-10T11:28:32.740Z,39.98
2019-06-10T11:31:03.761Z,38.49
2019-06-10T11:33:32.886Z,38.12
2019-06-10T11:36:02.975Z,37.35
2019-06-10T11:38:32.853Z,38.03
2019-06-10T11:41:02.317Z,37.99
2019-06-10T11:43:33.217Z,38.62
2019-06-10T11:46:06.826Z,38.97
2019-06-10T11:48:32.806Z,39.37
2019-06-10T11:51:04.588Z,39.92
2019-06-10T11:53:34.418Z,39.86
2019-06-10T11:56:02.848Z,40.15
2019-06-10T11:58:33.338Z,41.07
2019-06-10T12:01:03.834Z,40.44
2019-06-10T12:03:32.560Z,40.24
2019-06-10T12:06:05.087Z,39.97
2019-06-10T12:08:32.839Z,40.59
2019-06-10T12:11:02.600Z,39.59
2019-06-10T12:13:34.222Z,39.94
2019-06-10T12:18:33.228Z,40.34
2019-06-10T12:21:03.692Z,40.47
2019-06-10T12:23:33.780Z,40.95
2019-06-10T12:26:04.871Z,40.53
2019-06-10T12:28:33.734Z,41.30
2019-06-10T12:31:06.622Z,40.81
2019-06-10T12:33:33.804Z,40.86
2019-06-10T12:36:06.637Z,40.14
2019-06-10T12:38:33.784Z,40.78
2019-06-10T12:41:08.022Z,41.68
2019-06-10T12:43:33.463Z,42.11
2019-06-10T12:46:03.382Z,42.13
2019-06-10T12:48:34.090Z,41.91
2019-06-10T12:51:06.304Z,41.81
2019-06-10T12:53:33.686Z,42.00
2019-06-10T12:56:08.029Z,42.33
2019-06-10T12:58:33.728Z,42.39
2019-06-10T13:01:05.815Z,41.92
2019-06-10T13:03:33.936Z,41.88
2019-06-10T13:06:07.357Z,41.26
2019-06-10T13:08:35.117Z,40.82
2019-06-10T13:11:04.419Z,42.05
2019-06-10T13:13:33.168Z,41.50
2019-06-10T13:16:06.664Z,41.63
2019-06-10T13:18:33.471Z,42.23
2019-06-10T13:21:10.891Z,41.76
2019-06-10T13:23:35.415Z,40.03
2019-06-10T13:26:10.828Z,40.48
2019-06-10T13:28:36.304Z,41.43
2019-06-10T13:31:08.034Z,40.62
2019-06-10T13:33:35.801Z,40.81
2019-06-10T13:36:06.466Z,40.46
2019-06-10T13:38:35.116Z,40.43
2019-06-10T13:41:04.310Z,40.98
2019-06-10T13:43:34.052Z,40.93
2019-06-10T13:46:05.676Z,40.85
2019-06-10T13:48:33.505Z,40.89
2019-06-10T13:51:08.291Z,41.34
2019-06-10T13:53:32.777Z,40.84
2019-06-10T13:56:23.356Z,40.74
2019-06-10T13:58:32.036Z,40.19
2019-06-10T14:01:04.000Z,40.26
2019-06-10T14:03:32.651Z,39.68
2019-06-10T14:06:12.932Z,40.47
2019-06-10T14:08:32.649Z,39.47
2019-06-10T14:11:06.981Z,39.38
2019-06-10T14:13:32.741Z,39.28
2019-06-10T14:16:03.349Z,38.80
2019-06-10T14:18:33.468Z,39.34
2019-06-10T14:21:04.920Z,39.13
2019-06-10T14:23:33.215Z,39.46
2019-06-10T14:26:03.290Z,38.74
2019-06-10T14:28:40.797Z,38.69
2019-06-10T14:31:24.157Z,37.79
2019-06-10T14:33:35.705Z,36.79
2019-06-10T14:36:05.879Z,36.03
2019-06-10T14:38:35.018Z,35.47
2019-06-10T14:41:04.974Z,35.81
2019-06-10T14:43:34.381Z,34.75
2019-06-10T14:46:04.445Z,34.51
2019-06-10T14:48:33.857Z,34.63
2019-06-10T14:51:03.390Z,34.73
2019-06-10T14:53:33.739Z,34.64
2019-06-10T14:56:03.582Z,34.81
2019-06-10T14:58:33.001Z,35.54
2019-06-10T15:01:04.779Z,35.19
2019-06-10T15:03:33.805Z,35.45
2019-06-10T15:06:03.322Z,35.63
2019-06-10T15:08:33.576Z,35.94
2019-06-10T15:11:02.471Z,36.04
2019-06-10T15:13:32.725Z,36.34
2019-06-10T15:16:04.456Z,36.38
2019-06-10T15:18:33.049Z,36.63
2019-06-10T15:21:02.875Z,36.86
2019-06-10T15:23:32.630Z,36.99
2019-06-10T15:26:02.891Z,37.35
2019-06-10T15:28:32.697Z,37.40
2019-06-10T15:31:03.009Z,37.69
2019-06-10T15:33:32.751Z,37.79
2019-06-10T15:36:02.533Z,38.74
2019-06-10T15:38:32.797Z,38.74
2019-06-10T15:41:01.953Z,39.90
2019-06-10T15:43:32.893Z,50.52
2019-06-10T15:46:03.406Z,59.21
2019-06-10T15:48:31.730Z,64.12
2019-06-10T15:51:02.837Z,65.46
2019-06-10T15:53:32.828Z,67.92
2019-06-10T15:56:27.252Z,69.23
2019-06-10T15:58:32.150Z,70.17
2019-06-10T16:01:02.829Z,71.54
2019-06-10T16:03:33.056Z,71.47
2019-06-10T16:06:03.197Z,71.83
2019-06-10T16:08:33.001Z,71.90
2019-06-10T16:11:03.182Z,72.31
2019-06-10T16:13:32.531Z,72.64
2019-06-10T16:16:03.667Z,72.60
2019-06-10T16:18:32.966Z,72.78
2019-06-10T16:21:04.322Z,72.51
2019-06-10T16:23:33.979Z,72.67
2019-06-10T16:26:04.414Z,73.15
2019-06-10T16:28:33.255Z,72.87
2019-06-10T16:31:02.803Z,72.69
2019-06-10T16:33:33.562Z,72.46
2019-06-10T16:36:02.872Z,72.61
2019-06-10T16:38:32.791Z,72.72
2019-06-10T16:41:03.532Z,72.65
2019-06-10T16:43:33.411Z,72.57
2019-06-10T16:46:03.326Z,72.59
2019-06-10T16:48:33.415Z,72.84
2019-06-10T16:51:03.417Z,72.74
2019-06-10T16:53:35.508Z,72.66
2019-06-10T16:56:03.448Z,72.73
2019-06-10T16:58:33.851Z,72.79
2019-06-10T17:01:04.062Z,73.05
2019-06-10T17:03:34.034Z,73.25
2019-06-10T17:06:03.103Z,73.28
2019-06-10T17:08:33.388Z,73.06
2019-06-10T17:11:03.638Z,72.97
2019-06-10T17:13:32.713Z,72.96
2019-06-10T17:16:03.432Z,73.06
2019-06-10T17:18:33.701Z,72.81
2019-06-10T17:21:04.280Z,72.62
2019-06-10T17:23:36.472Z,72.73
2019-06-10T17:26:04.173Z,72.58
2019-06-10T17:28:36.663Z,72.31
2019-06-10T17:31:04.023Z,72.37
2019-06-10T17:33:35.851Z,72.49
2019-06-10T17:36:03.821Z,72.32
2019-06-10T17:38:32.613Z,72.34
2019-06-10T17:41:02.970Z,72.34
2019-06-10T17:43:34.445Z,71.79
2019-06-10T17:46:03.898Z,71.56
2019-06-10T17:48:33.614Z,71.34
2019-06-10T17:51:02.908Z,71.15
2019-06-10T17:53:34.742Z,71.05
2019-06-10T17:56:03.318Z,71.05
2019-06-10T17:58:47.611Z,71.00
2019-06-10T18:01:03.222Z,70.53
2019-06-10T18:03:33.277Z,70.57
2019-06-10T18:06:02.935Z,70.63
2019-06-10T18:08:36.291Z,70.67
2019-06-10T18:11:03.684Z,70.71
2019-06-10T18:13:34.732Z,70.72
2019-06-10T18:16:03.634Z,70.73
2019-06-10T18:18:36.561Z,70.52
2019-06-10T18:21:04.049Z,70.44
2019-06-10T18:23:33.179Z,69.67
2019-06-10T18:26:03.327Z,70.03
2019-06-10T18:28:45.559Z,70.37
2019-06-10T18:31:03.097Z,70.59
2019-06-10T18:33:34.520Z,70.68
2019-06-10T18:36:02.349Z,70.61
2019-06-10T18:38:33.977Z,70.60
2019-06-10T18:41:03.202Z,70.72
2019-06-10T18:43:33.759Z,70.81
2019-06-10T18:46:03.474Z,70.82
2019-06-10T18:48:35.992Z,70.87
2019-06-10T18:51:03.230Z,70.98
2019-06-10T18:53:33.518Z,71.01
2019-06-10T18:56:02.480Z,70.59
2019-06-10T18:58:34.218Z,70.62
2019-06-10T19:01:07.120Z,70.69
2019-06-10T19:03:34.614Z,70.71
2019-06-10T19:06:02.624Z,70.80
2019-06-10T19:08:34.268Z,70.83
2019-06-10T19:11:02.458Z,70.98
2019-06-10T19:13:33.963Z,70.86
2019-06-10T19:16:02.488Z,70.91
2019-06-10T19:18:31.970Z,70.99
2019-06-10T19:21:04.279Z,71.07
2019-06-10T19:23:34.673Z,71.11
2019-06-10T19:26:03.030Z,71.10
2019-06-10T19:28:33.827Z,71.08
2019-06-10T19:31:02.992Z,71.08
2019-06-10T19:33:35.011Z,71.06
2019-06-10T19:36:02.545Z,71.15
2019-06-10T19:38:32.444Z,71.22
2019-06-10T19:41:02.761Z,71.12
2019-06-10T19:43:34.587Z,71.19
2019-06-10T19:46:04.394Z,71.17
2019-06-10T19:48:37.302Z,71.06
2019-06-10T19:51:03.333Z,71.18
2019-06-10T19:53:33.017Z,71.00
2019-06-10T19:56:02.757Z,70.99
2019-06-10T19:58:32.327Z,71.00
2019-06-10T20:01:01.528Z,71.10
2019-06-10T20:03:32.516Z,71.12
2019-06-10T20:06:03.140Z,71.12
2019-06-10T20:08:33.071Z,71.08
2019-06-10T20:11:03.448Z,71.05
2019-06-10T20:13:32.628Z,71.09
2019-06-10T20:16:02.961Z,71.06
2019-06-10T20:18:33.210Z,70.96
2019-06-10T20:21:02.705Z,70.94
2019-06-10T20:23:33.357Z,70.96
2019-06-10T20:26:02.376Z,70.99
2019-06-10T20:28:32.199Z,70.88
2019-06-10T20:31:01.412Z,71.01
2019-06-10T20:33:36.166Z,71.00
2019-06-10T20:36:06.318Z,70.76
2019-06-10T20:38:32.729Z,70.77
2019-06-10T20:41:02.612Z,70.81
2019-06-10T20:43:32.858Z,70.91
2019-06-10T20:46:03.034Z,70.86
2019-06-10T20:48:33.592Z,70.97
2019-06-10T20:51:03.283Z,70.90
2019-06-10T20:53:33.771Z,70.89
2019-06-10T20:56:03.721Z,70.84
2019-06-10T20:58:33.303Z,70.66
2019-06-10T21:01:04.531Z,70.88
2019-06-10T21:03:32.955Z,70.83
2019-06-10T21:06:03.402Z,70.76
2019-06-10T21:08:33.960Z,70.81
2019-06-10T21:11:03.215Z,70.90
2019-06-10T21:13:32.994Z,70.89
2019-06-10T21:16:03.628Z,70.78
2019-06-10T21:18:33.114Z,70.88
2019-06-10T21:21:02.280Z,70.93
2019-06-10T21:23:31.173Z,71.06
2019-06-10T21:26:02.537Z,71.03
2019-06-10T21:28:32.719Z,71.02
2019-06-10T21:31:02.878Z,70.94
2019-06-10T21:33:33.286Z,71.09
2019-06-10T21:36:04.062Z,70.87
2019-06-10T21:38:33.243Z,71.02
2019-06-10T21:41:03.265Z,70.91
2019-06-10T21:43:33.051Z,70.82
2019-06-10T21:46:03.786Z,70.81
2019-06-10T21:48:32.871Z,70.72
2019-06-10T21:51:01.670Z,70.68
2019-06-10T21:53:31.768Z,70.74
2019-06-10T21:56:00.580Z,70.75
2019-06-10T21:58:29.401Z,70.74
2019-06-10T22:01:09.705Z,70.78
2019-06-10T22:03:28.722Z,70.87
2019-06-10T22:05:57.658Z,70.88
2019-06-10T22:08:27.879Z,70.77
2019-06-10T22:10:56.795Z,70.64
2019-06-10T22:13:25.645Z,70.98
2019-06-10T22:15:56.900Z,70.99
2019-06-10T22:18:25.393Z,71.01
2019-06-10T22:20:57.553Z,71.17
2019-06-10T22:23:24.706Z,71.05
2019-06-10T22:25:55.880Z,71.17
2019-06-10T22:28:23.952Z,71.20
2019-06-10T22:31:10.825Z,71.06
2019-06-10T22:33:23.206Z,70.82
2019-06-10T22:35:54.550Z,70.69
2019-06-10T22:38:22.474Z,70.52
2019-06-10T22:40:53.627Z,70.63
2019-06-10T22:43:23.590Z,70.48
2019-06-10T22:45:54.239Z,70.59
2019-06-10T22:48:22.681Z,70.69
2019-06-10T22:50:51.416Z,70.99
2019-06-10T22:53:22.981Z,70.82
2019-06-10T22:55:53.032Z,70.81
2019-06-10T22:58:23.741Z,71.16
2019-06-10T23:00:53.205Z,71.18
2019-06-10T23:03:22.067Z,70.79
2019-06-10T23:05:52.248Z,70.96
2019-06-10T23:08:23.032Z,71.11
2019-06-10T23:10:53.768Z,71.19
2019-06-10T23:13:23.181Z,71.11
2019-06-10T23:15:54.550Z,71.31
2019-06-10T23:18:22.637Z,71.18
2019-06-10T23:20:54.491Z,71.19
2019-06-10T23:23:23.328Z,71.44
2019-06-10T23:25:53.664Z,71.80
2019-06-10T23:28:22.941Z,71.91
2019-06-10T23:30:55.299Z,71.92
2019-06-10T23:33:22.911Z,71.69
2019-06-10T23:35:52.575Z,71.98
2019-06-10T23:38:23.583Z,72.04
2019-06-10T23:40:53.057Z,71.88
2019-06-10T23:43:22.482Z,71.96
2019-06-10T23:45:51.690Z,72.02
2019-06-10T23:48:22.760Z,72.02
2019-06-10T23:50:54.045Z,72.01
2019-06-10T23:53:23.233Z,71.87
2019-06-10T23:55:54.590Z,71.73
2019-06-10T23:58:25.245Z,71.80
